Time;durP1;ratioP1;P1;durP2;ratioP2;P2;SDS_P1;SDS_P2;PMS_P1;PMS_P2;Temp;Humidity;BMP_temperature;BMP_pressure;BME280_temperature;BME280_humidity;BME280_pressure;Samples;Min_cycle;Max_cycle;Signal;HPM_P1;HPM_P2
2021/01/19 00:02:16;;;;;;;10.85;5.32;;;4.00;99.90;;;;;;5026805;28;20068;-76
2021/01/19 00:04:42;;;;;;;9.15;5.00;;;4.10;99.90;;;;;;5025763;28;20045;-74
2021/01/19 00:07:07;;;;;;;11.13;4.90;;;4.20;99.90;;;;;;5020863;28;20109;-75
2021/01/19 00:09:33;;;;;;;10.95;4.97;;;4.10;99.90;;;;;;5021809;28;20044;-76
2021/01/19 00:11:59;;;;;;;9.80;4.43;;;4.10;99.90;;;;;;5008460;28;20037;-77
2021/01/19 00:14:25;;;;;;;14.32;5.60;;;4.20;99.90;;;;;;5017172;28;20029;-77
2021/01/19 00:16:51;;;;;;;13.15;5.35;;;4.10;99.90;;;;;;5024107;28;20040;-76
2021/01/19 00:19:17;;;;;;;13.30;5.15;;;4.10;99.90;;;;;;5026011;28;20068;-75
2021/01/19 00:21:43;;;;;;;9.25;5.43;;;;;;;;;;5025626;28;20510;-75
2021/01/19 00:24:08;;;;;;;14.52;6.10;;;4.10;99.90;;;;;;5024701;28;20046;-76
2021/01/19 00:26:34;;;;;;;11.68;5.95;;;4.00;99.90;;;;;;5028674;28;20054;-77
2021/01/19 00:29:00;;;;;;;12.25;5.63;;;5.20;99.90;;;;;;5005502;28;20049;-75
2021/01/19 00:31:26;;;;;;;13.18;5.97;;;4.00;99.90;;;;;;5029869;28;20037;-75
2021/01/19 00:33:52;;;;;;;12.38;5.07;;;4.10;99.90;;;;;;5029740;28;20038;-75
2021/01/19 00:36:18;;;;;;;11.77;5.45;;;4.00;99.90;;;;;;5034098;28;20041;-76
2021/01/19 00:38:44;;;;;;;12.93;4.85;;;4.10;99.90;;;;;;5031777;28;20050;-74
2021/01/19 00:41:09;;;;;;;12.88;5.18;;;4.00;99.90;;;;;;5021598;28;20041;-74
2021/01/19 00:43:35;;;;;;;11.55;4.90;;;4.00;99.90;;;;;;5021391;28;20042;-75
2021/01/19 00:46:01;;;;;;;10.18;4.43;;;4.50;99.90;;;;;;5029486;28;20044;-75
2021/01/19 00:48:27;;;;;;;9.35;4.63;;;3.90;99.90;;;;;;5028503;28;20061;-75
2021/01/19 00:50:53;;;;;;;13.32;4.95;;;4.00;99.90;;;;;;5029189;28;20041;-75
2021/01/19 00:53:18;;;;;;;10.48;4.45;;;4.00;99.90;;;;;;5020077;28;20126;-76
2021/01/19 00:55:44;;;;;;;10.75;5.35;;;4.00;99.90;;;;;;5030210;28;20044;-76
2021/01/19 00:58:10;;;;;;;11.80;4.80;;;4.00;99.90;;;;;;5020746;28;20132;-77
2021/01/19 01:00:36;;;;;;;11.45;4.35;;;4.00;99.90;;;;;;5029371;28;20017;-75
2021/01/19 01:03:02;;;;;;;11.23;4.85;;;4.00;99.90;;;;;;5026538;28;20610;-75
2021/01/19 01:05:28;;;;;;;8.45;4.55;;;4.00;99.90;;;;;;5009640;28;20057;-76
2021/01/19 01:07:54;;;;;;;10.77;4.63;;;4.30;99.90;;;;;;5014259;28;20503;-77
2021/01/19 01:10:19;;;;;;;8.35;4.88;;;3.80;99.90;;;;;;5028661;28;20057;-76
2021/01/19 01:12:45;;;;;;;10.43;5.07;;;3.80;99.90;;;;;;5025702;28;20399;-76
2021/01/19 01:15:13;;;;;;;8.40;4.60;;;3.80;99.90;;;;;;5029602;28;20042;-76
2021/01/19 01:17:40;;;;;;;9.88;4.75;;;3.80;99.90;;;;;;5014623;28;20091;-75
2021/01/19 01:20:10;;;;;;;11.00;4.78;;;3.90;99.90;;;;;;5025159;28;20621;-75
2021/01/19 01:22:46;;;;;;;13.20;5.05;;;3.80;99.90;;;;;;5025383;28;20049;-75
2021/01/19 01:25:13;;;;;;;8.85;4.47;;;3.80;99.90;;;;;;5028042;28;20029;-76
2021/01/19 01:27:40;;;;;;;8.85;4.40;;;3.80;99.90;;;;;;5012744;28;20041;-76
2021/01/19 01:30:07;;;;;;;9.15;4.70;;;3.90;99.90;;;;;;5028580;28;20061;-75
2021/01/19 01:32:41;;;;;;;13.45;4.75;;;3.70;99.90;;;;;;5022004;28;20053;-76
2021/01/19 01:35:09;;;;;;;10.23;4.72;;;3.70;99.90;;;;;;5028267;28;20044;-76
2021/01/19 01:37:35;;;;;;;9.25;4.50;;;3.70;99.90;;;;;;5030487;28;20292;-76
2021/01/19 01:40:01;;;;;;;8.77;4.78;;;3.70;99.90;;;;;;5028972;28;20490;-75
2021/01/19 01:42:27;;;;;;;7.90;4.30;;;3.70;99.90;;;;;;5023124;28;20026;-75
2021/01/19 01:44:52;;;;;;;9.13;4.57;;;3.70;99.90;;;;;;5007313;28;20068;-74
2021/01/19 01:47:27;;;;;;;9.60;4.43;;;3.70;99.90;;;;;;5024612;28;20048;-75
2021/01/19 01:49:53;;;;;;;7.95;4.25;;;3.70;99.90;;;;;;5023483;28;20407;-75
2021/01/19 01:52:22;;;;;;;11.23;4.38;;;3.70;99.90;;;;;;5029112;28;20130;-76
2021/01/19 01:54:51;;;;;;;10.30;3.92;;;3.70;99.90;;;;;;5025803;28;20578;-75
2021/01/19 01:57:18;;;;;;;9.18;4.13;;;3.70;99.90;;;;;;5028681;28;20034;-75
2021/01/19 01:59:48;;;;;;;10.82;4.18;;;3.70;99.90;;;;;;5019577;28;20041;-75
2021/01/19 02:02:13;;;;;;;11.53;4.67;;;3.70;99.90;;;;;;5024539;28;20033;-75
2021/01/19 02:04:39;;;;;;;13.20;4.50;;;3.70;99.90;;;;;;5024096;28;20785;-75
2021/01/19 02:07:17;;;;;;;9.07;4.07;;;3.70;99.90;;;;;;5026379;28;20150;-75
2021/01/19 02:09:49;;;;;;;9.38;4.05;;;3.70;99.90;;;;;;5027122;28;20050;-75
2021/01/19 02:12:23;;;;;;;8.98;4.38;;;3.70;99.90;;;;;;5028637;28;20073;-74
2021/01/19 02:15:05;;;;;;;10.88;4.53;;;3.70;99.90;;;;;;5027725;28;20038;-75
2021/01/19 02:17:56;;;;;;;8.65;4.07;;;3.70;99.90;;;;;;5026649;28;20033;-75
2021/01/19 02:20:53;;;;;;;10.85;4.65;;;3.70;99.90;;;;;;5022890;28;20038;-76
2021/01/19 02:24:06;;;;;;;10.25;4.18;;;3.70;99.90;;;;;;5027484;28;20052;-75
2021/01/19 02:26:50;;;;;;;10.52;4.20;;;3.80;99.90;;;;;;5026361;28;20402;-75
2021/01/19 02:29:41;;;;;;;9.02;4.53;;;3.80;99.90;;;;;;5032582;28;20034;-75
2021/01/19 02:32:13;;;;;;;;;;;3.80;99.90;;;;;;5026578;28;20564;-76
2021/01/19 02:34:56;;;;;;;16.08;4.57;;;3.80;99.90;;;;;;5044642;28;19904;-76
2021/01/19 02:37:41;;;;;;;8.80;4.03;;;3.70;99.90;;;;;;5020444;28;20037;-75
2021/01/19 02:40:08;;;;;;;10.85;4.32;;;3.70;99.90;;;;;;5025100;28;20471;-76
2021/01/19 02:42:41;;;;;;;9.45;4.55;;;3.80;99.90;;;;;;5019628;28;20033;-75
2021/01/19 02:45:09;;;;;;;10.27;4.47;;;3.70;99.90;;;;;;5021329;28;20033;-76
2021/01/19 02:47:37;;;;;;;9.48;4.50;;;3.70;99.90;;;;;;5027757;28;20128;-75
2021/01/19 02:50:07;;;;;;;10.98;4.70;;;3.70;99.90;;;;;;5027889;28;20042;-75
2021/01/19 02:52:34;;;;;;;10.88;4.70;;;3.70;99.90;;;;;;5030505;28;20029;-76
2021/01/19 02:55:00;;;;;;;10.88;4.03;;;;;;;;;;5028408;28;20025;-76
2021/01/19 02:58:03;;;;;;;9.18;4.25;;;3.80;99.90;;;;;;5030023;28;20037;-76
2021/01/19 03:00:39;;;;;;;11.85;4.80;;;3.70;99.90;;;;;;4992140;28;20034;-76
2021/01/19 03:03:07;;;;;;;7.85;4.20;;;3.70;99.90;;;;;;5023804;28;20057;-75
2021/01/19 03:05:36;;;;;;;10.73;4.63;;;3.80;99.90;;;;;;5032034;28;20076;-76
2021/01/19 03:08:05;;;;;;;12.00;4.95;;;3.80;99.90;;;;;;5030319;28;20132;-76
2021/01/19 03:10:32;;;;;;;11.40;4.55;;;3.80;99.90;;;;;;5034728;28;20399;-76
2021/01/19 03:12:59;;;;;;;9.40;4.43;;;3.70;99.90;;;;;;5030303;28;20053;-75
2021/01/19 03:15:24;;;;;;;9.02;3.95;;;3.70;99.90;;;;;;5027563;28;20038;-76
2021/01/19 03:17:51;;;;;;;10.25;4.63;;;3.60;99.90;;;;;;5028137;28;20504;-76
2021/01/19 03:20:17;;;;;;;10.13;4.70;;;3.60;99.90;;;;;;5030503;28;20080;-75
2021/01/19 03:22:43;;;;;;;8.70;4.75;;;3.60;99.90;;;;;;5028598;28;20569;-76
2021/01/19 03:25:09;;;;;;;15.40;5.45;;;3.60;99.90;;;;;;5018790;28;20025;-75
2021/01/19 03:27:35;;;;;;;10.90;4.50;;;3.70;99.90;;;;;;5030387;28;20399;-76
2021/01/19 03:30:03;;;;;;;12.35;4.60;;;3.70;99.90;;;;;;5029695;28;20526;-77
2021/01/19 03:32:29;;;;;;;11.50;4.18;;;3.70;99.90;;;;;;5030974;28;20033;-77
2021/01/19 03:34:55;;;;;;;10.00;4.65;;;3.60;99.90;;;;;;5027480;28;20037;-74
2021/01/19 03:37:21;;;;;;;11.88;4.38;;;3.60;99.90;;;;;;5031665;28;20037;-76
2021/01/19 03:39:46;;;;;;;10.85;5.00;;;3.60;99.90;;;;;;5026540;28;20038;-75
2021/01/19 03:42:13;;;;;;;9.30;5.07;;;3.70;99.90;;;;;;5023979;28;20412;-75
2021/01/19 03:44:39;;;;;;;9.10;4.47;;;3.60;99.90;;;;;;5027335;28;20037;-75
2021/01/19 03:47:04;;;;;;;11.85;4.70;;;3.60;99.90;;;;;;5022977;28;20618;-75
2021/01/19 03:49:30;;;;;;;9.82;4.90;;;3.60;99.90;;;;;;5023918;28;20043;-76
2021/01/19 03:51:56;;;;;;;8.30;3.92;;;3.70;99.90;;;;;;5027973;28;20072;-76
2021/01/19 03:54:21;;;;;;;10.23;4.75;;;3.60;99.90;;;;;;5009771;28;20049;-75
2021/01/19 03:56:47;;;;;;;11.35;4.80;;;3.60;99.90;;;;;;5010186;28;20115;-76
2021/01/19 03:59:13;;;;;;;11.13;5.03;;;3.60;99.90;;;;;;5007463;28;20034;-75
2021/01/19 04:01:42;;;;;;;10.88;4.93;;;3.60;99.90;;;;;;5030922;28;20033;-76
2021/01/19 04:04:08;;;;;;;10.60;5.25;;;3.50;99.90;;;;;;5027828;28;20148;-74
2021/01/19 04:06:34;;;;;;;9.32;4.53;;;;;;;;;;5028841;28;20041;-75
2021/01/19 04:09:00;;;;;;;13.07;5.75;;;3.70;99.90;;;;;;5014596;28;20057;-75
2021/01/19 04:11:26;;;;;;;9.27;5.30;;;3.70;99.90;;;;;;5024679;28;20033;-75
2021/01/19 04:13:52;;;;;;;11.07;5.95;;;3.70;99.90;;;;;;5016666;28;20401;-76
2021/01/19 04:16:18;;;;;;;13.98;5.47;;;3.70;99.90;;;;;;5024703;28;20040;-76
2021/01/19 04:18:43;;;;;;;10.82;5.30;;;3.70;99.90;;;;;;5027426;28;20076;-75
2021/01/19 04:21:10;;;;;;;16.30;6.15;;;3.70;99.90;;;;;;5029271;28;20045;-75
2021/01/19 04:23:36;;;;;;;11.15;5.63;;;;;;;;;;5029315;28;20079;-74
2021/01/19 04:26:01;;;;;;;14.82;6.18;;;3.60;99.90;;;;;;5027178;28;20084;-74
2021/01/19 04:28:27;;;;;;;12.50;5.97;;;3.60;99.90;;;;;;5014267;28;20072;-75
2021/01/19 04:30:53;;;;;;;12.93;6.00;;;3.60;99.90;;;;;;5026240;28;20521;-76
2021/01/19 04:33:18;;;;;;;15.65;5.43;;;3.50;99.90;;;;;;5026543;28;20680;-75
2021/01/19 04:35:45;;;;;;;11.57;5.95;;;3.50;99.90;;;;;;5010572;28;20522;-75
2021/01/19 04:38:11;;;;;;;13.10;5.90;;;3.50;99.90;;;;;;5031058;28;20045;-76
2021/01/19 04:40:37;;;;;;;19.63;6.60;;;3.50;99.90;;;;;;5011959;28;20033;-76
2021/01/19 04:43:04;;;;;;;12.07;6.03;;;3.50;99.90;;;;;;5032928;28;20128;-75
2021/01/19 04:45:32;;;;;;;13.35;6.38;;;3.50;99.90;;;;;;5028408;28;20096;-74
2021/01/19 04:48:02;;;;;;;15.27;6.40;;;3.50;99.90;;;;;;5019140;28;20431;-75
2021/01/19 04:50:29;;;;;;;10.57;6.10;;;3.40;99.90;;;;;;5031258;28;20566;-76
2021/01/19 04:52:58;;;;;;;12.77;6.13;;;3.40;99.90;;;;;;5019248;28;20029;-75
2021/01/19 04:55:25;;;;;;;15.85;7.25;;;3.40;99.90;;;;;;5017010;28;20037;-75
2021/01/19 04:57:58;;;;;;;15.00;6.70;;;3.40;99.90;;;;;;5016869;28;20507;-74
2021/01/19 05:00:29;;;;;;;15.75;6.15;;;3.40;99.90;;;;;;5025394;28;20084;-75
2021/01/19 05:03:21;;;;;;;10.45;5.95;;;3.30;99.90;;;;;;5019642;28;20053;-76
2021/01/19 05:05:47;;;;;;;14.20;6.28;;;3.40;99.90;;;;;;5028543;28;20498;-75
2021/01/19 05:08:16;;;;;;;15.43;6.53;;;3.50;99.90;;;;;;5024108;28;20046;-74
2021/01/19 05:11:01;;;;;;;12.38;6.10;;;3.40;99.90;;;;;;5027640;28;20527;-75
2021/01/19 05:13:49;;;;;;;14.48;6.55;;;3.40;99.90;;;;;;5027040;28;20037;-76
2021/01/19 05:16:17;;;;;;;13.63;6.40;;;3.40;99.90;;;;;;5027653;28;20103;-75
2021/01/19 05:18:43;;;;;;;11.48;5.50;;;3.40;99.90;;;;;;5026383;28;20053;-77
2021/01/19 05:21:09;;;;;;;10.43;5.47;;;3.50;99.90;;;;;;5027773;28;20068;-75
2021/01/19 05:23:35;;;;;;;13.23;5.88;;;3.50;99.90;;;;;;5027040;28;20071;-75
2021/01/19 05:26:03;;;;;;;13.82;5.68;;;3.50;99.90;;;;;;5028985;28;20080;-76
2021/01/19 05:28:39;;;;;;;11.43;5.50;;;3.50;99.90;;;;;;5013213;28;20095;-76
2021/01/19 05:31:16;;;;;;;13.40;6.15;;;3.60;99.90;;;;;;5025140;28;20109;-75
2021/01/19 05:33:54;;;;;;;10.85;5.82;;;4.30;99.90;;;;;;5026065;28;20064;-75
2021/01/19 05:36:22;;;;;;;15.90;7.45;;;3.50;99.90;;;;;;5020641;28;20048;-75
2021/01/19 05:38:53;;;;;;;12.98;6.20;;;3.40;99.90;;;;;;5029738;28;20057;-76
2021/01/19 05:41:38;;;;;;;11.45;5.50;;;3.40;99.90;;;;;;5027581;28;20487;-77
2021/01/19 05:44:26;;;;;;;13.88;5.45;;;3.40;99.90;;;;;;5029931;28;20029;-75
2021/01/19 05:47:04;;;;;;;13.82;6.10;;;3.40;99.90;;;;;;5024641;28;20042;-76
2021/01/19 05:49:38;;;;;;;12.02;5.68;;;3.40;99.90;;;;;;5043636;28;20517;-75
2021/01/19 05:52:12;;;;;;;14.93;6.00;;;3.40;99.90;;;;;;5023291;28;20021;-76
2021/01/19 05:54:45;;;;;;;12.90;5.50;;;3.40;99.90;;;;;;5020625;28;20030;-74
2021/01/19 05:57:16;;;;;;;15.38;5.65;;;3.40;99.90;;;;;;5016769;28;20452;-76
2021/01/19 05:59:44;;;;;;;9.77;5.22;;;3.40;99.90;;;;;;5019444;28;20060;-75
2021/01/19 06:02:15;;;;;;;11.20;5.93;;;3.40;99.90;;;;;;5022940;28;20053;-74
2021/01/19 06:04:52;;;;;;;8.75;4.97;;;3.60;99.90;;;;;;5021707;28;20058;-76
2021/01/19 06:07:23;;;;;;;13.48;5.10;;;3.60;99.90;;;;;;5023082;28;20438;-74
2021/01/19 06:09:50;;;;;;;11.00;5.38;;;3.50;99.90;;;;;;5021987;28;20037;-75
2021/01/19 06:12:19;;;;;;;13.90;5.43;;;3.50;99.90;;;;;;5024176;28;20423;-75
2021/01/19 06:14:50;;;;;;;13.02;5.38;;;3.50;99.90;;;;;;5027970;28;20021;-75
2021/01/19 06:17:22;;;;;;;14.65;6.40;;;3.50;99.90;;;;;;5032769;28;20029;-75
2021/01/19 06:19:53;;;;;;;10.68;5.50;;;3.50;99.90;;;;;;5027901;28;20034;-75
2021/01/19 06:22:22;;;;;;;14.43;5.83;;;3.40;99.90;;;;;;5028675;28;20137;-75
2021/01/19 06:24:52;;;;;;;14.32;5.72;;;3.40;99.90;;;;;;5025046;28;20280;-76
2021/01/19 06:27:21;;;;;;;11.65;5.63;;;3.40;99.90;;;;;;5023038;28;20033;-74
2021/01/19 06:29:51;;;;;;;63.22;27.13;;;3.40;99.90;;;;;;5024235;28;20096;-76
2021/01/19 06:32:18;;;;;;;18.15;6.15;;;3.40;99.90;;;;;;5029385;28;20426;-75
2021/01/19 06:34:44;;;;;;;14.18;6.45;;;3.40;99.90;;;;;;5028363;28;20534;-75
2021/01/19 06:37:25;;;;;;;12.70;5.60;;;3.40;99.90;;;;;;5029924;28;20116;-74
2021/01/19 06:39:59;;;;;;;11.20;4.95;;;3.40;99.90;;;;;;5024939;28;20071;-76
2021/01/19 06:42:29;;;;;;;13.50;5.10;;;3.50;99.90;;;;;;5042979;28;20038;-76
2021/01/19 06:44:57;;;;;;;13.30;6.10;;;3.40;99.90;;;;;;5028467;28;20038;-75
2021/01/19 06:47:22;;;;;;;12.13;5.88;;;3.50;99.90;;;;;;5026497;28;20075;-75
2021/01/19 06:49:50;;;;;;;9.90;5.30;;;3.50;99.90;;;;;;5021794;28;20034;-75
2021/01/19 06:52:16;;;;;;;16.67;5.82;;;3.40;99.90;;;;;;5007563;28;20034;-76
2021/01/19 06:54:54;;;;;;;13.90;5.97;;;3.40;99.90;;;;;;5007686;28;20057;-76
2021/01/19 06:57:32;;;;;;;13.02;5.28;;;3.50;99.90;;;;;;5027000;28;20021;-74
2021/01/19 07:00:20;;;;;;;12.68;5.68;;;3.50;99.90;;;;;;5027155;28;20661;-75
2021/01/19 07:02:50;;;;;;;12.65;4.80;;;3.50;99.90;;;;;;5005832;28;20045;-76
2021/01/19 07:05:21;;;;;;;14.48;5.78;;;3.40;99.90;;;;;;5026797;28;20573;-75
2021/01/19 07:08:15;;;;;;;13.45;5.90;;;3.40;99.90;;;;;;5027589;28;20111;-76
2021/01/19 07:10:51;;;;;;;8.93;4.75;;;3.40;99.90;;;;;;5027995;28;20079;-74
2021/01/19 07:13:22;;;;;;;11.75;4.95;;;3.50;99.90;;;;;;5020342;28;20499;-76
2021/01/19 07:16:07;;;;;;;16.95;6.45;;;3.50;99.90;;;;;;5026240;28;20053;-76
2021/01/19 07:19:03;;;;;;;13.05;5.55;;;3.50;99.90;;;;;;5025670;28;20060;-75
2021/01/19 07:21:47;;;;;;;11.48;5.20;;;3.50;99.90;;;;;;5025404;28;20132;-76
2021/01/19 07:24:18;;;;;;;10.10;5.05;;;3.60;99.90;;;;;;5033141;28;20526;-76
2021/01/19 07:26:44;;;;;;;;;;;3.60;99.90;;;;;;5027953;28;20079;-76
2021/01/19 07:29:10;;;;;;;9.88;4.70;;;3.40;99.90;;;;;;5024880;28;19920;-76
2021/01/19 07:31:36;;;;;;;12.73;4.80;;;3.70;99.90;;;;;;5023648;28;20041;-74
2021/01/19 07:34:07;;;;;;;12.52;5.45;;;3.70;99.90;;;;;;5029141;28;20446;-73
2021/01/19 07:36:33;;;;;;;;;;;3.70;99.90;;;;;;5029140;28;20116;-77
2021/01/19 07:38:59;;;;;;;14.40;5.07;;;3.70;99.90;;;;;;5029707;28;20007;-75
2021/01/19 07:41:33;;;;;;;15.70;5.85;;;3.80;99.90;;;;;;5007810;28;20044;-73
2021/01/19 07:43:59;;;;;;;16.98;5.28;;;3.80;99.90;;;;;;5020510;28;20034;-78
2021/01/19 07:46:27;;;;;;;11.88;5.43;;;3.80;99.90;;;;;;5027880;28;20126;-75
2021/01/19 07:49:01;;;;;;;11.52;4.43;;;3.80;99.90;;;;;;5018379;28;20030;-76
2021/01/19 07:51:42;;;;;;;14.48;5.00;;;3.80;99.90;;;;;;5023416;28;20117;-76
2021/01/19 07:54:12;;;;;;;11.55;5.00;;;3.70;99.90;;;;;;5025923;28;20033;-75
2021/01/19 07:56:39;;;;;;;11.10;5.10;;;3.70;99.90;;;;;;5020183;28;20557;-76
2021/01/19 07:59:16;;;;;;;15.13;5.70;;;3.80;99.90;;;;;;5022075;28;20510;-76
2021/01/19 08:01:56;;;;;;;13.23;5.07;;;3.70;99.90;;;;;;5019231;28;20072;-75
2021/01/19 08:04:33;;;;;;;10.55;5.07;;;3.80;99.90;;;;;;5013630;28;20052;-75
2021/01/19 08:07:16;;;;;;;13.48;5.90;;;3.80;99.90;;;;;;5020614;28;20129;-73
2021/01/19 08:09:43;;;;;;;10.93;5.32;;;3.80;99.90;;;;;;5024962;28;20047;-75
2021/01/19 08:12:17;;;;;;;11.25;4.90;;;3.80;99.90;;;;;;5039054;28;20037;-75
2021/01/19 08:14:44;;;;;;;11.57;4.80;;;3.80;99.90;;;;;;5038872;28;20032;-75
2021/01/19 08:17:11;;;;;;;9.40;4.70;;;3.90;99.90;;;;;;5034781;28;20037;-74
2021/01/19 08:19:46;;;;;;;13.77;4.68;;;3.90;99.90;;;;;;5027344;28;20028;-75
2021/01/19 08:22:22;;;;;;;10.95;4.75;;;3.90;99.90;;;;;;5036781;28;20044;-73
2021/01/19 08:24:47;;;;;;;10.43;5.03;;;3.90;99.90;;;;;;5033649;28;20137;-73
2021/01/19 08:27:13;;;;;;;11.27;4.90;;;3.90;99.90;;;;;;5027606;28;20558;-75
2021/01/19 08:29:39;;;;;;;12.07;5.20;;;3.90;99.90;;;;;;5024828;28;20033;-75
2021/01/19 08:32:08;;;;;;;13.10;5.28;;;3.90;99.90;;;;;;5027237;28;20038;-75
2021/01/19 08:34:36;;;;;;;9.85;4.50;;;4.00;99.90;;;;;;5019903;28;20037;-75
2021/01/19 08:37:02;;;;;;;11.82;4.68;;;4.00;99.80;;;;;;5029670;28;20462;-74
2021/01/19 08:39:28;;;;;;;10.65;4.97;;;4.00;99.90;;;;;;5022938;28;20080;-75
2021/01/19 08:41:55;;;;;;;9.98;4.57;;;4.00;99.90;;;;;;5017783;28;20037;-74
2021/01/19 08:44:21;;;;;;;11.52;4.70;;;3.90;99.80;;;;;;5023862;28;20499;-75
2021/01/19 08:46:49;;;;;;;12.20;4.45;;;3.90;99.90;;;;;;4988754;28;20051;-75
2021/01/19 08:49:17;;;;;;;10.13;4.88;;;4.00;99.90;;;;;;5023626;28;20029;-74
2021/01/19 08:51:47;;;;;;;10.23;4.05;;;4.00;99.90;;;;;;5028616;28;20037;-75
2021/01/19 08:54:13;;;;;;;8.97;4.30;;;4.00;99.80;;;;;;5024981;28;20415;-75
2021/01/19 08:56:44;;;;;;;12.50;4.22;;;4.00;99.90;;;;;;5022365;28;20333;-77
2021/01/19 08:59:14;;;;;;;11.38;4.80;;;4.00;99.90;;;;;;5020952;28;20507;-75
2021/01/19 09:01:51;;;;;;;13.65;4.85;;;5.00;99.90;;;;;;5006869;28;20248;-75
2021/01/19 09:04:30;;;;;;;9.23;4.40;;;4.10;99.90;;;;;;5017217;28;20121;-76
2021/01/19 09:07:10;;;;;;;12.43;4.60;;;4.20;99.60;;;;;;5030934;28;20091;-75
2021/01/19 09:09:36;;;;;;;9.37;4.33;;;5.00;99.90;;;;;;5016317;28;20034;-73
2021/01/19 09:12:14;;;;;;;8.43;4.30;;;4.20;99.70;;;;;;5023231;28;20025;-75
2021/01/19 09:14:41;;;;;;;10.00;4.55;;;4.20;99.50;;;;;;5022330;28;20109;-75
2021/01/19 09:17:06;;;;;;;11.07;4.70;;;4.20;99.60;;;;;;5019956;28;20115;-74
2021/01/19 09:19:32;;;;;;;11.18;4.45;;;4.10;99.40;;;;;;5022337;28;20060;-75
2021/01/19 09:21:58;;;;;;;10.55;4.63;;;4.10;99.60;;;;;;5025580;28;20049;-75
2021/01/19 09:24:25;;;;;;;12.27;4.30;;;5.10;99.90;;;;;;5016205;28;20135;-75
2021/01/19 09:27:01;;;;;;;10.32;4.25;;;4.20;99.30;;;;;;5023602;28;20588;-75
2021/01/19 09:29:32;;;;;;;10.35;4.82;;;4.20;99.40;;;;;;5029048;28;20049;-74
2021/01/19 09:32:02;;;;;;;13.40;4.47;;;4.30;99.20;;;;;;5018393;28;20033;-75
2021/01/19 09:34:30;;;;;;;8.00;4.70;;;4.40;99.20;;;;;;5021616;28;20521;-75
2021/01/19 09:36:56;;;;;;;11.25;4.53;;;4.30;98.80;;;;;;5027880;28;20056;-75
2021/01/19 09:39:27;;;;;;;10.13;4.55;;;4.50;98.40;;;;;;5024724;28;20082;-75
2021/01/19 09:41:54;;;;;;;10.50;4.35;;;4.40;99.00;;;;;;5023021;28;20041;-74
2021/01/19 09:44:20;;;;;;;10.25;4.55;;;4.30;99.00;;;;;;5026720;28;20042;-75
2021/01/19 09:46:52;;;;;;;11.75;5.43;;;4.30;99.00;;;;;;5014428;28;20423;-75
2021/01/19 09:49:19;;;;;;;11.15;4.47;;;4.30;99.40;;;;;;5021282;28;20056;-76
2021/01/19 09:51:45;;;;;;;12.43;5.47;;;4.30;99.30;;;;;;5015225;28;20511;-75
2021/01/19 09:54:10;;;;;;;8.63;4.28;;;4.50;99.30;;;;;;5017504;28;20033;-75
2021/01/19 09:56:36;;;;;;;8.75;4.45;;;4.40;99.50;;;;;;5002227;28;20067;-76
2021/01/19 09:59:06;;;;;;;9.35;4.60;;;4.40;99.60;;;;;;5020382;28;20515;-75
2021/01/19 10:01:32;;;;;;;9.10;4.93;;;4.30;99.90;;;;;;5023019;28;20037;-75
2021/01/19 10:03:58;;;;;;;8.98;4.85;;;4.30;99.90;;;;;;5023241;28;20470;-77
2021/01/19 10:06:25;;;;;;;16.15;5.60;;;4.20;99.90;;;;;;5020161;28;20094;-75
2021/01/19 10:08:52;;;;;;;10.95;4.72;;;4.20;99.90;;;;;;5021746;28;20046;-74
2021/01/19 10:11:31;;;;;;;10.32;4.88;;;4.20;99.90;;;;;;5025205;28;20033;-75
2021/01/19 10:14:12;;;;;;;10.38;3.90;;;4.10;99.90;;;;;;5023423;28;20087;-74
2021/01/19 10:16:48;;;;;;;10.80;5.00;;;4.00;99.90;;;;;;5020897;28;20033;-75
2021/01/19 10:19:23;;;;;;;17.40;5.20;;;4.00;99.90;;;;;;5036984;28;20030;-76
2021/01/19 10:21:51;;;;;;;12.57;5.45;;;4.00;99.90;;;;;;5037579;28;20041;-75
2021/01/19 10:24:18;;;;;;;12.05;5.07;;;3.90;99.90;;;;;;5020901;28;20406;-75
2021/01/19 10:27:00;;;;;;;9.45;4.95;;;3.90;99.90;;;;;;5028646;28;20216;-74
2021/01/19 10:29:31;;;;;;;14.75;5.30;;;3.90;99.90;;;;;;5016690;28;20065;-74
2021/01/19 10:32:02;;;;;;;15.20;5.25;;;3.80;99.90;;;;;;5018496;28;20068;-74
2021/01/19 10:34:29;;;;;;;12.80;5.30;;;3.80;99.90;;;;;;5027524;28;20112;-76
2021/01/19 10:36:56;;;;;;;14.48;5.78;;;3.70;99.90;;;;;;5019869;28;20042;-74
2021/01/19 10:39:24;;;;;;;11.13;5.50;;;3.70;99.90;;;;;;5017421;28;20049;-74
2021/01/19 10:41:51;;;;;;;8.82;5.18;;;3.70;99.90;;;;;;5014883;28;20065;-75
2021/01/19 10:44:24;;;;;;;14.05;5.60;;;3.70;99.90;;;;;;5018589;28;20049;-76
2021/01/19 10:47:00;;;;;;;18.58;6.18;;;3.80;99.90;;;;;;5038887;28;20045;-76
2021/01/19 10:49:31;;;;;;;13.27;6.00;;;3.90;99.90;;;;;;5020057;28;20041;-75
2021/01/19 10:51:58;;;;;;;14.20;5.47;;;3.70;99.90;;;;;;5030775;28;20037;-75
2021/01/19 10:54:25;;;;;;;11.13;6.35;;;3.70;99.90;;;;;;5021772;28;20030;-75
2021/01/19 10:57:05;;;;;;;14.27;5.75;;;3.70;99.90;;;;;;5022652;28;20033;-76
2021/01/19 10:59:31;;;;;;;13.45;5.53;;;3.70;99.90;;;;;;5014007;28;20044;-76
2021/01/19 11:02:00;;;;;;;13.25;6.00;;;3.70;99.90;;;;;;5034461;28;20060;-76
2021/01/19 11:04:25;;;;;;;13.68;5.90;;;3.80;99.90;;;;;;5023550;28;20040;-75
2021/01/19 11:06:52;;;;;;;10.88;5.38;;;3.80;99.90;;;;;;5035593;28;20037;-74
2021/01/19 11:09:18;;;;;;;15.57;6.43;;;3.60;99.90;;;;;;5025199;28;20415;-75
2021/01/19 11:11:43;;;;;;;14.52;6.13;;;3.70;99.90;;;;;;5022518;28;20040;-76
2021/01/19 11:14:09;;;;;;;12.27;5.75;;;3.70;99.90;;;;;;5016547;28;20033;-75
2021/01/19 11:16:39;;;;;;;16.15;5.80;;;3.60;99.90;;;;;;5030191;28;20364;-73
2021/01/19 11:19:06;;;;;;;13.85;6.22;;;3.50;99.90;;;;;;5028995;28;20037;-74
2021/01/19 11:21:33;;;;;;;13.27;6.45;;;3.50;99.90;;;;;;5025780;28;20036;-75
2021/01/19 11:24:04;;;;;;;10.43;5.60;;;3.60;99.90;;;;;;5022803;28;20129;-76
2021/01/19 11:26:30;;;;;;;13.13;6.20;;;3.60;99.90;;;;;;5028022;28;20029;-75
2021/01/19 11:28:57;;;;;;;13.20;5.93;;;3.50;99.90;;;;;;5021772;28;20871;-76
2021/01/19 11:31:27;;;;;;;19.20;6.72;;;3.40;99.90;;;;;;5013003;28;20079;-76
2021/01/19 11:33:54;;;;;;;13.32;6.53;;;3.40;99.90;;;;;;5021115;28;21008;-76
2021/01/19 11:36:25;;;;;;;16.88;6.95;;;3.40;99.90;;;;;;5025301;28;20101;-75
2021/01/19 11:38:53;;;;;;;16.67;7.45;;;3.40;99.90;;;;;;5020650;28;20088;-76
2021/01/19 11:41:25;;;;;;;14.23;6.90;;;3.40;99.90;;;;;;5023232;28;20049;-76
2021/01/19 11:43:51;;;;;;;14.27;6.35;;;3.50;99.90;;;;;;5009948;28;20120;-77
2021/01/19 11:46:26;;;;;;;11.65;5.80;;;4.50;99.90;;;;;;5020432;28;20029;-74
2021/01/19 11:48:53;;;;;;;13.77;6.65;;;3.40;99.90;;;;;;5021973;28;20542;-75
2021/01/19 11:51:26;;;;;;;12.75;6.55;;;3.50;99.90;;;;;;5025609;28;20478;-77
2021/01/19 11:53:53;;;;;;;15.43;6.57;;;3.40;99.90;;;;;;4992856;28;20128;-76
2021/01/19 11:56:30;;;;;;;14.00;6.85;;;3.60;99.90;;;;;;5025410;28;20029;-76
2021/01/19 11:58:56;;;;;;;13.15;6.10;;;3.60;99.90;;;;;;5018118;28;20450;-76
2021/01/19 12:01:22;;;;;;;13.90;7.03;;;3.60;99.90;;;;;;4981544;28;20840;-76
2021/01/19 12:03:48;;;;;;;16.30;7.03;;;3.50;99.90;;;;;;5018910;28;20183;-75
2021/01/19 12:06:15;;;;;;;13.68;6.78;;;3.50;99.90;;;;;;5020023;28;20041;-75
2021/01/19 12:08:41;;;;;;;14.90;8.57;;;4.00;99.90;;;;;;5017339;28;20550;-75
2021/01/19 12:11:08;;;;;;;16.50;7.40;;;3.60;99.90;;;;;;5022240;28;20037;-76
2021/01/19 12:13:33;;;;;;;17.25;6.90;;;3.60;99.90;;;;;;5023868;28;20033;-76
2021/01/19 12:15:59;;;;;;;17.45;6.97;;;3.60;99.90;;;;;;5023256;28;20044;-75
2021/01/19 12:18:25;;;;;;;12.60;6.50;;;3.70;99.90;;;;;;4996819;28;20037;-76
2021/01/19 12:20:53;;;;;;;11.88;6.57;;;3.70;99.90;;;;;;5022435;28;20500;-76
2021/01/19 12:23:19;;;;;;;11.68;5.70;;;3.80;99.90;;;;;;5022017;28;20038;-76
2021/01/19 12:25:44;;;;;;;13.45;7.03;;;3.90;99.90;;;;;;5018941;28;20518;-77
2021/01/19 12:28:10;;;;;;;15.60;6.53;;;3.80;99.90;;;;;;5018949;28;20034;-77
2021/01/19 12:30:36;;;;;;;20.02;8.05;;;3.70;99.90;;;;;;5024401;28;20727;-74
2021/01/19 12:33:02;;;;;;;15.82;8.00;;;3.70;99.90;;;;;;5022275;28;20523;-75
2021/01/19 12:35:27;;;;;;;13.75;6.45;;;3.70;99.90;;;;;;5025418;28;20101;-75
2021/01/19 12:37:57;;;;;;;15.02;8.05;;;3.40;99.90;;;;;;5025359;28;20439;-74
2021/01/19 12:40:24;;;;;;;12.55;7.80;;;3.50;99.90;;;;;;5021025;28;20047;-75
2021/01/19 12:42:50;;;;;;;14.10;7.28;;;3.50;99.90;;;;;;5023465;28;20419;-76
2021/01/19 12:45:17;;;;;;;17.13;8.25;;;4.40;99.90;;;;;;5023837;28;20033;-75
2021/01/19 12:47:43;;;;;;;18.52;7.55;;;3.40;99.90;;;;;;5018503;28;20073;-76
2021/01/19 12:50:09;;;;;;;17.80;9.73;;;3.50;99.90;;;;;;5011203;28;20526;-75
2021/01/19 12:52:35;;;;;;;14.13;8.43;;;3.50;99.90;;;;;;5014150;28;20038;-74
2021/01/19 12:55:03;;;;;;;16.17;7.55;;;3.50;99.90;;;;;;5004581;28;20521;-75
2021/01/19 12:57:29;;;;;;;13.88;7.53;;;3.50;99.90;;;;;;5020857;28;20092;-73
2021/01/19 12:59:55;;;;;;;17.08;8.02;;;3.50;99.90;;;;;;5020684;28;20566;-75
2021/01/19 13:02:20;;;;;;;14.13;7.40;;;3.50;99.90;;;;;;5018598;28;20479;-74
2021/01/19 13:04:47;;;;;;;13.45;7.30;;;6.20;99.90;;;;;;5012316;28;20458;-74